createdAt,value
2019-02-23T00:00:19.734Z,10.70
2019-02-23T00:01:19.792Z,10.50
2019-02-23T00:02:19.709Z,10.10
2019-02-23T00:03:19.718Z,10.80
2019-02-23T00:04:20.118Z,10.90
2019-02-23T00:05:19.693Z,10.60
2019-02-23T00:06:29.469Z,11.10
2019-02-23T00:07:20.866Z,11.60
2019-02-23T00:08:19.643Z,10.90
2019-02-23T00:09:19.659Z,11.00
2019-02-23T00:10:19.656Z,11.60
2019-02-23T00:11:19.960Z,10.50
2019-02-23T00:12:19.617Z,10.20
2019-02-23T00:13:19.663Z,11.40
2019-02-23T00:14:19.586Z,10.50
2019-02-23T00:15:19.594Z,11.40
2019-02-23T00:16:19.620Z,10.40
2019-02-23T00:17:19.554Z,10.90
2019-02-23T00:18:19.576Z,10.90
2019-02-23T00:19:24.994Z,10.90
2019-02-23T00:20:20.527Z,10.90
2019-02-23T00:21:19.523Z,10.90
2019-02-23T00:22:19.520Z,11.50
2019-02-23T00:23:19.493Z,11.60
2019-02-23T00:24:20.882Z,11.50
2019-02-23T00:25:19.573Z,10.30
2019-02-23T00:26:19.468Z,11.00
2019-02-23T00:27:19.464Z,10.70
2019-02-23T00:28:19.453Z,10.50
2019-02-23T00:29:19.452Z,11.80
2019-02-23T00:30:20.292Z,11.10
2019-02-23T00:31:19.498Z,10.90
2019-02-23T00:32:19.398Z,11.40
2019-02-23T00:33:19.395Z,10.00
2019-02-23T00:34:19.391Z,10.40
2019-02-23T00:35:19.366Z,10.70
2019-02-23T00:36:19.753Z,11.20
2019-02-23T00:37:19.696Z,10.50
2019-02-23T00:38:19.348Z,10.90
2019-02-23T00:39:19.336Z,10.50
2019-02-23T00:40:19.312Z,11.10
2019-02-23T00:41:19.321Z,10.50
2019-02-23T00:42:19.322Z,10.70
2019-02-23T00:43:19.328Z,11.10
2019-02-23T00:44:19.272Z,11.30
2019-02-23T00:45:19.343Z,12.10
2019-02-23T00:46:19.262Z,11.60
2019-02-23T00:47:19.236Z,11.80
2019-02-23T00:48:19.248Z,11.30
2019-02-23T00:49:19.341Z,11.40
2019-02-23T00:50:19.231Z,11.30
2019-02-23T00:51:19.223Z,11.20
2019-02-23T00:52:19.197Z,11.40
2019-02-23T00:53:19.187Z,11.80
2019-02-23T00:54:19.621Z,10.80
2019-02-23T00:55:19.458Z,10.40
2019-02-23T00:56:19.168Z,10.10
2019-02-23T00:57:19.147Z,9.70
2019-02-23T00:58:19.138Z,9.10
2019-02-23T00:59:19.124Z,8.70
2019-02-23T01:00:19.118Z,9.10
2019-02-23T01:01:19.173Z,8.90
2019-02-23T01:02:19.091Z,9.10
2019-02-23T01:03:19.084Z,9.70
2019-02-23T01:04:19.068Z,9.20
2019-02-23T01:05:19.077Z,8.80
2019-02-23T01:06:19.059Z,8.50
2019-02-23T01:07:19.532Z,8.90
2019-02-23T01:08:19.041Z,8.30
2019-02-23T01:09:19.018Z,8.30
2019-02-23T01:10:19.793Z,8.40
2019-02-23T01:11:19.825Z,7.90
2019-02-23T01:12:18.990Z,8.40
2019-02-23T01:13:20.002Z,8.50
2019-02-23T01:14:18.976Z,8.20
2019-02-23T01:15:18.967Z,7.90
2019-02-23T01:16:18.947Z,7.40
2019-02-23T01:17:18.943Z,8.30
2019-02-23T01:18:18.957Z,7.50
2019-02-23T01:19:19.440Z,8.40
2019-02-23T01:20:18.927Z,7.90
2019-02-23T01:21:18.898Z,8.10
2019-02-23T01:22:18.884Z,8.10
2019-02-23T01:23:18.880Z,7.80
2019-02-23T01:24:18.877Z,8.50
2019-02-23T01:25:18.928Z,8.00
2019-02-23T01:26:18.887Z,8.10
2019-02-23T01:27:18.830Z,8.20
2019-02-23T01:28:18.820Z,8.40
2019-02-23T01:29:18.828Z,8.80
2019-02-23T01:30:18.809Z,8.70
2019-02-23T01:31:18.967Z,7.90
2019-02-23T01:32:18.800Z,8.70
2019-02-23T01:33:18.777Z,8.00
2019-02-23T01:34:18.776Z,8.00
2019-02-23T01:35:18.757Z,7.90
2019-02-23T01:36:18.743Z,8.30
2019-02-23T01:37:19.337Z,7.80
2019-02-23T01:38:18.727Z,8.10
2019-02-23T01:39:18.715Z,8.20
2019-02-23T01:40:18.706Z,8.10
2019-02-23T01:41:18.694Z,8.40
2019-02-23T01:42:18.681Z,7.50
2019-02-23T01:43:19.039Z,8.10
2019-02-23T01:44:19.131Z,7.60
2019-02-23T01:45:18.652Z,8.00
2019-02-23T01:46:18.643Z,7.70
2019-02-23T01:47:18.641Z,7.70
2019-02-23T01:48:18.609Z,8.00
2019-02-23T01:49:18.966Z,8.00
2019-02-23T01:50:18.589Z,8.80
2019-02-23T01:51:18.947Z,7.50
2019-02-23T01:52:18.563Z,8.10
2019-02-23T01:53:18.553Z,8.60
2019-02-23T01:54:18.648Z,7.50
2019-02-23T01:55:18.889Z,7.90
2019-02-23T01:56:18.527Z,7.50
2019-02-23T01:57:18.519Z,7.40
2019-02-23T01:58:19.002Z,8.00
2019-02-23T01:59:18.501Z,8.00
2019-02-23T02:00:18.499Z,8.20
2019-02-23T02:01:18.506Z,8.10
2019-02-23T02:02:18.506Z,7.60
2019-02-23T02:03:18.488Z,7.70
2019-02-23T02:04:18.437Z,8.40
2019-02-23T02:05:18.853Z,8.70
2019-02-23T02:06:18.792Z,8.10
2019-02-23T02:07:18.467Z,7.50
2019-02-23T02:08:18.447Z,7.70
2019-02-23T02:09:18.391Z,8.00
2019-02-23T02:10:18.402Z,8.10
2019-02-23T02:11:18.387Z,8.20
2019-02-23T02:12:18.682Z,7.60
2019-02-23T02:13:18.393Z,8.10
2019-02-23T02:14:18.328Z,8.10
2019-02-23T02:15:18.336Z,7.70
2019-02-23T02:16:18.318Z,8.70
2019-02-23T02:17:18.310Z,7.50
2019-02-23T02:18:18.296Z,7.70
2019-02-23T02:19:18.769Z,7.90
2019-02-23T02:20:18.277Z,8.30
2019-02-23T02:21:18.277Z,7.80
2019-02-23T02:22:18.253Z,7.90
2019-02-23T02:23:18.269Z,7.80
2019-02-23T02:24:18.228Z,8.40
2019-02-23T02:25:18.597Z,8.40
2019-02-23T02:26:19.595Z,8.20
2019-02-23T02:27:18.198Z,8.60
2019-02-23T02:28:18.197Z,8.50
2019-02-23T02:29:18.168Z,8.30
2019-02-23T02:30:18.266Z,8.90
2019-02-23T02:31:18.214Z,8.20
2019-02-23T02:32:18.169Z,8.50
2019-02-23T02:33:18.616Z,8.50
2019-02-23T02:34:18.149Z,8.30
2019-02-23T02:35:18.128Z,7.90
2019-02-23T02:36:18.163Z,8.20
2019-02-23T02:37:18.121Z,8.90
2019-02-23T02:38:18.081Z,9.20
2019-02-23T02:39:18.136Z,8.00
2019-02-23T02:40:18.474Z,8.90
2019-02-23T02:41:18.056Z,8.30
2019-02-23T02:42:18.051Z,8.60
2019-02-23T02:43:18.086Z,8.00
2019-02-23T02:44:18.020Z,8.10
2019-02-23T02:45:18.013Z,8.20
2019-02-23T02:46:18.008Z,9.30
2019-02-23T02:47:18.495Z,9.10
2019-02-23T02:48:17.979Z,8.30
2019-02-23T02:49:18.017Z,11.00
2019-02-23T02:50:24.362Z,8.50
2019-02-23T02:51:18.937Z,8.90
2019-02-23T02:52:17.946Z,8.50
2019-02-23T02:53:17.927Z,8.80
2019-02-23T02:54:18.338Z,8.10
2019-02-23T02:55:17.932Z,8.70
2019-02-23T02:56:17.892Z,8.50
2019-02-23T02:57:17.888Z,9.00
2019-02-23T02:58:17.891Z,8.20
2019-02-23T02:59:17.889Z,9.50
2019-02-23T03:01:36.583Z,8.30
2019-02-23T03:02:36.229Z,9.20
2019-02-23T03:03:36.226Z,8.70
2019-02-23T03:04:36.208Z,9.50
2019-02-23T03:05:36.203Z,8.80
2019-02-23T03:06:36.192Z,8.30
2019-02-23T03:07:36.216Z,9.40
2019-02-23T03:08:36.562Z,9.40
2019-02-23T03:09:36.151Z,8.60
2019-02-23T03:10:36.147Z,8.90
2019-02-23T03:11:36.132Z,8.40
2019-02-23T03:12:36.125Z,8.10
2019-02-23T03:13:36.141Z,8.80
2019-02-23T03:14:36.136Z,8.60
2019-02-23T03:15:36.442Z,9.20
2019-02-23T03:16:36.071Z,9.30
2019-02-23T03:17:36.062Z,8.90
2019-02-23T03:18:36.072Z,8.40
2019-02-23T03:19:36.266Z,8.70
2019-02-23T03:20:36.991Z,8.90
2019-02-23T03:21:36.032Z,8.50
2019-02-23T03:22:36.328Z,8.90
2019-02-23T03:23:36.006Z,8.70
2019-02-23T03:24:36.043Z,8.60
2019-02-23T03:25:36.022Z,9.00
2019-02-23T03:26:35.969Z,8.40
2019-02-23T03:27:36.783Z,8.90
2019-02-23T03:28:35.952Z,8.20
2019-02-23T03:29:36.256Z,9.30
2019-02-23T03:30:35.979Z,8.90
2019-02-23T03:31:35.982Z,8.80
2019-02-23T03:32:35.932Z,9.10
2019-02-23T03:33:35.924Z,8.80
2019-02-23T03:34:35.911Z,9.10
2019-02-23T03:35:35.885Z,8.80
2019-02-23T03:36:36.287Z,8.50
2019-02-23T03:37:36.178Z,8.80
2019-02-23T03:38:35.882Z,8.60
2019-02-23T03:39:35.834Z,9.20
2019-02-23T03:40:35.827Z,10.00
2019-02-23T03:41:35.815Z,8.50
2019-02-23T03:42:35.808Z,9.50
2019-02-23T03:43:36.141Z,9.10
2019-02-23T03:44:35.776Z,9.50
2019-02-23T03:45:35.775Z,9.70
2019-02-23T03:46:35.763Z,8.60
2019-02-23T03:47:35.817Z,9.10
2019-02-23T03:48:35.853Z,9.20
2019-02-23T03:49:35.791Z,9.80
2019-02-23T03:50:36.019Z,9.10
2019-02-23T03:51:35.712Z,9.00
2019-02-23T03:52:35.698Z,9.50
2019-02-23T03:53:35.707Z,9.10
2019-02-23T03:54:35.681Z,9.70
2019-02-23T03:55:36.237Z,8.90
2019-02-23T03:56:35.664Z,8.50
2019-02-23T03:57:37.004Z,9.40
2019-02-23T03:58:35.647Z,9.10
2019-02-23T03:59:35.634Z,10.00
2019-02-23T04:00:35.620Z,9.20
2019-02-23T04:01:35.644Z,9.40
2019-02-23T04:02:35.631Z,9.40
2019-02-23T04:03:35.599Z,8.90
2019-02-23T04:04:35.883Z,9.70
2019-02-23T04:05:35.567Z,9.00
2019-02-23T04:06:35.565Z,9.20
2019-02-23T04:07:35.617Z,9.10
2019-02-23T04:08:35.537Z,9.50
2019-02-23T04:09:35.532Z,9.50
2019-02-23T04:10:35.556Z,9.60
2019-02-23T04:11:35.848Z,9.90
2019-02-23T04:12:35.542Z,9.80
2019-02-23T04:13:35.557Z,9.60
2019-02-23T04:14:35.513Z,9.50
2019-02-23T04:15:35.479Z,9.80
2019-02-23T04:16:35.454Z,9.70
2019-02-23T04:17:35.476Z,10.10
2019-02-23T04:18:35.743Z,10.30
2019-02-23T04:19:35.466Z,9.50
2019-02-23T04:20:35.427Z,9.80
2019-02-23T04:21:35.411Z,9.90
2019-02-23T04:22:35.389Z,10.20
2019-02-23T04:23:35.438Z,10.50
2019-02-23T04:24:35.378Z,10.40
2019-02-23T04:25:35.689Z,10.90
2019-02-23T04:26:35.350Z,10.20
2019-02-23T04:27:35.375Z,10.80
2019-02-23T04:28:35.351Z,9.90
2019-02-23T04:29:35.336Z,10.00
2019-02-23T04:30:35.319Z,9.70
2019-02-23T04:31:36.070Z,10.20
2019-02-23T04:32:35.308Z,10.30
2019-02-23T04:33:35.278Z,10.60
2019-02-23T04:34:35.279Z,10.90
2019-02-23T04:35:35.278Z,11.10
2019-02-23T04:36:35.253Z,9.90
2019-02-23T04:37:35.274Z,10.90
2019-02-23T04:38:35.542Z,10.60
2019-02-23T04:39:35.274Z,10.60
2019-02-23T04:40:35.246Z,10.50
2019-02-23T04:41:35.231Z,10.50
2019-02-23T04:42:35.203Z,10.30
2019-02-23T04:43:35.215Z,10.10
2019-02-23T04:44:35.191Z,10.00
2019-02-23T04:45:35.476Z,11.20
2019-02-23T04:46:35.170Z,9.60
2019-02-23T04:47:35.138Z,10.30
2019-02-23T04:48:35.159Z,10.20
2019-02-23T04:49:35.432Z,9.30
2019-02-23T04:50:35.118Z,10.20
2019-02-23T04:51:35.112Z,9.70
2019-02-23T04:52:35.423Z,10.30
2019-02-23T04:53:35.758Z,9.30
2019-02-23T04:54:35.092Z,10.20
2019-02-23T04:55:35.295Z,9.60
2019-02-23T04:56:35.043Z,9.70
2019-02-23T04:57:35.133Z,11.20
2019-02-23T04:58:35.027Z,12.50
2019-02-23T04:59:36.056Z,12.20
2019-02-23T05:00:34.999Z,14.60
2019-02-23T05:01:35.091Z,13.30
2019-02-23T05:02:35.008Z,10.60
2019-02-23T05:03:35.004Z,10.40
2019-02-23T05:04:34.977Z,10.00
2019-02-23T05:05:34.947Z,9.80
2019-02-23T05:06:36.443Z,11.70
2019-02-23T05:07:35.781Z,12.00
2019-02-23T05:08:35.005Z,10.40
2019-02-23T05:09:34.968Z,10.10
2019-02-23T05:10:34.905Z,10.40
2019-02-23T05:11:34.906Z,10.30
2019-02-23T05:12:34.884Z,10.30
2019-02-23T05:13:36.320Z,10.40
2019-02-23T05:14:34.863Z,9.10
2019-02-23T05:15:34.859Z,9.90
2019-02-23T05:16:34.850Z,9.70
2019-02-23T05:17:34.848Z,10.20
2019-02-23T05:18:34.829Z,10.20
2019-02-23T05:19:34.847Z,10.30
2019-02-23T05:20:35.325Z,9.80
2019-02-23T05:21:34.803Z,10.80
2019-02-23T05:22:34.802Z,10.70
2019-02-23T05:23:34.812Z,12.50
2019-02-23T05:24:34.782Z,12.50
2019-02-23T05:25:34.842Z,12.80
2019-02-23T05:26:34.813Z,12.30
2019-02-23T05:27:35.137Z,10.60
2019-02-23T05:28:34.728Z,10.00
2019-02-23T05:29:34.721Z,11.10
2019-02-23T05:30:34.731Z,10.50
2019-02-23T05:31:34.730Z,10.50
2019-02-23T05:32:34.691Z,10.50
2019-02-23T05:33:34.693Z,10.90
2019-02-23T05:34:36.198Z,10.90
2019-02-23T05:35:34.643Z,11.20
2019-02-23T05:36:34.635Z,10.70
2019-02-23T05:37:34.669Z,10.70
2019-02-23T05:38:34.622Z,10.90
2019-02-23T05:39:34.617Z,10.70
2019-02-23T05:40:34.592Z,11.50
2019-02-23T05:41:35.187Z,10.70
2019-02-23T05:42:34.587Z,10.30
2019-02-23T05:43:34.659Z,11.20
2019-02-23T05:44:34.562Z,10.30
2019-02-23T05:45:35.236Z,11.30
2019-02-23T05:46:34.628Z,11.70
2019-02-23T05:47:34.540Z,11.10
2019-02-23T05:48:35.065Z,10.80
2019-02-23T05:49:37.022Z,11.10
2019-02-23T05:50:34.491Z,11.60
2019-02-23T05:51:38.634Z,11.60
2019-02-23T05:52:34.467Z,11.50
2019-02-23T05:53:34.527Z,12.50
2019-02-23T05:54:34.454Z,12.90
2019-02-23T05:55:34.948Z,15.90
2019-02-23T05:56:34.472Z,12.00
2019-02-23T05:57:34.454Z,12.10
2019-02-23T05:58:34.458Z,11.80
2019-02-23T05:59:34.409Z,10.90
2019-02-23T06:00:34.389Z,11.70
2019-02-23T06:01:34.689Z,11.70
2019-02-23T06:02:34.730Z,11.90
2019-02-23T06:03:34.352Z,12.40
2019-02-23T06:04:34.359Z,11.30
2019-02-23T06:05:34.359Z,12.50
2019-02-23T06:06:34.333Z,11.90
2019-02-23T06:07:34.373Z,11.30
2019-02-23T06:08:34.328Z,11.70
2019-02-23T06:09:34.772Z,11.10
2019-02-23T06:10:34.316Z,11.80
2019-02-23T06:11:34.381Z,11.60
2019-02-23T06:12:34.286Z,12.30
2019-02-23T06:13:34.466Z,13.20
2019-02-23T06:14:34.244Z,13.30
2019-02-23T06:15:34.261Z,13.80
2019-02-23T06:16:34.621Z,12.40
2019-02-23T06:17:34.233Z,13.40
2019-02-23T06:18:34.286Z,12.70
2019-02-23T06:19:34.393Z,12.20
2019-02-23T06:20:34.312Z,12.20
2019-02-23T06:21:34.232Z,12.30
2019-02-23T06:22:34.212Z,11.90
2019-02-23T06:23:34.677Z,12.00
2019-02-23T06:24:34.147Z,12.20
2019-02-23T06:25:34.293Z,11.70
2019-02-23T06:26:34.131Z,11.40
2019-02-23T06:27:34.133Z,12.00
2019-02-23T06:28:34.133Z,11.60
2019-02-23T06:29:34.105Z,11.30
2019-02-23T06:30:35.583Z,11.80
2019-02-23T06:31:34.129Z,12.00
2019-02-23T06:32:34.069Z,11.60
2019-02-23T06:33:34.054Z,11.70
2019-02-23T06:34:34.087Z,11.20
2019-02-23T06:35:34.043Z,11.30
2019-02-23T06:36:34.032Z,11.70
2019-02-23T06:37:35.812Z,12.60
2019-02-23T06:38:33.996Z,12.80
2019-02-23T06:39:34.087Z,12.50
2019-02-23T06:40:33.981Z,14.60
2019-02-23T06:41:33.991Z,14.00
2019-02-23T06:42:33.981Z,13.60
2019-02-23T06:43:33.979Z,13.00
2019-02-23T06:44:34.398Z,14.10
2019-02-23T06:45:33.929Z,13.20
2019-02-23T06:46:34.727Z,11.80
2019-02-23T06:47:33.913Z,12.60
2019-02-23T06:48:33.894Z,11.90
2019-02-23T06:49:33.923Z,12.30
2019-02-23T06:50:33.866Z,12.00
2019-02-23T06:51:34.251Z,13.00
2019-02-23T06:52:33.866Z,12.90
2019-02-23T06:53:33.861Z,11.80
2019-02-23T06:54:33.853Z,12.50
2019-02-23T06:55:33.868Z,12.60
2019-02-23T06:56:34.739Z,12.30
2019-02-23T06:57:33.811Z,12.00
2019-02-23T06:58:33.798Z,12.50
2019-02-23T06:59:33.800Z,12.40
2019-02-23T07:00:33.828Z,13.00
2019-02-23T07:01:33.820Z,13.40
2019-02-23T07:02:34.734Z,13.10
2019-02-23T07:03:34.117Z,13.40
2019-02-23T07:04:33.732Z,13.00
2019-02-23T07:05:33.745Z,12.90
2019-02-23T07:06:33.724Z,13.00
2019-02-23T07:07:33.764Z,12.80
2019-02-23T07:08:33.690Z,12.60
2019-02-23T07:09:33.710Z,12.90
2019-02-23T07:10:33.686Z,12.50
2019-02-23T07:11:33.686Z,12.30
2019-02-23T07:12:33.645Z,13.10
2019-02-23T07:13:33.707Z,13.90
2019-02-23T07:14:33.646Z,13.00
2019-02-23T07:15:33.979Z,11.80
2019-02-23T07:16:33.705Z,12.60
2019-02-23T07:17:33.676Z,13.30
2019-02-23T07:18:33.610Z,12.90
2019-02-23T07:19:33.603Z,13.10
2019-02-23T07:20:43.448Z,13.00
2019-02-23T07:21:34.587Z,13.20
2019-02-23T07:22:34.029Z,13.90
2019-02-23T07:23:33.541Z,13.70
2019-02-23T07:24:33.536Z,13.50
2019-02-23T07:25:33.553Z,13.50
2019-02-23T07:26:33.509Z,13.20
2019-02-23T07:27:33.495Z,12.80
2019-02-23T07:28:33.482Z,12.60
2019-02-23T07:29:33.855Z,13.60
2019-02-23T07:30:33.474Z,13.20
2019-02-23T07:31:33.522Z,12.80
2019-02-23T07:32:33.543Z,13.50
2019-02-23T07:33:33.464Z,13.80
2019-02-23T07:34:33.446Z,12.30
2019-02-23T07:35:33.432Z,12.70
2019-02-23T07:36:33.907Z,12.70
2019-02-23T07:37:33.471Z,13.60
2019-02-23T07:38:35.526Z,12.40
2019-02-23T07:39:33.376Z,12.90
2019-02-23T07:40:33.484Z,12.80
2019-02-23T07:41:33.353Z,13.00
2019-02-23T07:42:33.364Z,13.50
2019-02-23T07:43:33.778Z,12.80
2019-02-23T07:44:33.332Z,13.10
2019-02-23T07:45:33.332Z,13.20
2019-02-23T07:46:33.319Z,13.80
2019-02-23T07:47:33.329Z,14.10
2019-02-23T07:48:33.781Z,13.30
2019-02-23T07:49:33.477Z,13.70
2019-02-23T07:50:34.676Z,13.10
2019-02-23T07:51:33.242Z,13.40
2019-02-23T07:52:33.246Z,14.50
2019-02-23T07:53:33.268Z,15.00
2019-02-23T07:54:33.218Z,13.40
2019-02-23T07:55:33.303Z,14.80
2019-02-23T07:56:35.107Z,13.20
2019-02-23T07:57:33.652Z,15.10
2019-02-23T07:58:33.203Z,14.70
2019-02-23T07:59:33.157Z,14.20
2019-02-23T08:00:33.192Z,14.20
2019-02-23T08:01:33.287Z,14.70
2019-02-23T08:02:33.141Z,13.70
2019-02-23T08:03:33.153Z,14.70
2019-02-23T08:04:33.475Z,13.60
2019-02-23T08:05:33.112Z,15.40
2019-02-23T08:06:33.104Z,13.50
2019-02-23T08:07:33.152Z,14.60
2019-02-23T08:08:33.105Z,14.20
2019-02-23T08:09:33.087Z,14.80
2019-02-23T08:10:33.706Z,15.00
2019-02-23T08:11:33.078Z,14.80
2019-02-23T08:12:33.035Z,16.10
2019-02-23T08:13:33.246Z,14.20
2019-02-23T08:14:33.019Z,14.30
2019-02-23T08:15:33.053Z,14.00
2019-02-23T08:16:33.005Z,14.90
2019-02-23T08:17:33.384Z,15.00
2019-02-23T08:18:33.003Z,15.80
2019-02-23T08:19:32.996Z,15.00
2019-02-23T08:20:33.698Z,14.40
2019-02-23T08:21:34.791Z,15.20
2019-02-23T08:22:37.469Z,14.10
2019-02-23T08:23:33.762Z,16.00
2019-02-23T08:24:32.940Z,14.00
2019-02-23T08:25:33.884Z,15.70
2019-02-23T08:26:32.928Z,14.10
2019-02-23T08:27:32.872Z,13.20
2019-02-23T08:28:33.903Z,14.80
2019-02-23T08:29:32.873Z,14.60
2019-02-23T08:30:32.873Z,14.00
2019-02-23T08:31:32.936Z,14.10
2019-02-23T08:32:34.777Z,14.00
2019-02-23T08:33:32.830Z,14.50
2019-02-23T08:34:33.665Z,14.40
2019-02-23T08:35:32.796Z,13.30
2019-02-23T08:36:32.781Z,13.10
2019-02-23T08:37:32.826Z,13.70
2019-02-23T08:38:32.762Z,14.70
2019-02-23T08:39:32.799Z,14.10
2019-02-23T08:40:32.799Z,15.60
2019-02-23T08:41:32.778Z,13.70
2019-02-23T08:42:32.808Z,15.70
2019-02-23T08:43:32.848Z,14.30
2019-02-23T08:44:32.729Z,13.70
2019-02-23T08:45:32.732Z,13.90
2019-02-23T08:46:32.691Z,13.70
2019-02-23T08:47:33.923Z,13.70
2019-02-23T08:48:33.444Z,14.00
2019-02-23T08:49:32.728Z,16.30
2019-02-23T08:50:32.727Z,13.90
2019-02-23T08:51:32.676Z,13.50
2019-02-23T08:52:32.678Z,14.10
2019-02-23T08:53:32.693Z,13.90
2019-02-23T08:54:32.654Z,13.80
2019-02-23T08:55:32.636Z,14.10
2019-02-23T08:56:32.583Z,14.40
2019-02-23T08:57:32.567Z,14.30
2019-02-23T08:58:32.561Z,13.40
2019-02-23T08:59:32.552Z,13.70
2019-02-23T09:00:32.668Z,14.80
2019-02-23T09:01:32.697Z,15.50
2019-02-23T09:02:32.529Z,14.20
2019-02-23T09:03:32.515Z,13.90
2019-02-23T09:04:32.515Z,14.00
2019-02-23T09:05:32.551Z,14.40
2019-02-23T09:06:32.745Z,14.80
2019-02-23T09:07:33.390Z,14.30
2019-02-23T09:08:32.600Z,13.10
2019-02-23T09:09:34.759Z,14.10
2019-02-23T09:10:32.734Z,14.00
2019-02-23T09:11:34.650Z,14.00
2019-02-23T09:12:40.538Z,13.60
2019-02-23T09:13:34.515Z,14.60
2019-02-23T09:14:33.981Z,14.40
2019-02-23T09:15:33.693Z,13.70
2019-02-23T09:16:36.557Z,13.80
2019-02-23T09:17:32.717Z,14.10
2019-02-23T09:18:32.388Z,14.50
2019-02-23T09:19:32.454Z,13.50
2019-02-23T09:20:32.362Z,14.90
2019-02-23T09:21:32.533Z,14.60
2019-02-23T09:22:32.302Z,14.10
2019-02-23T09:23:32.453Z,15.60
2019-02-23T09:24:32.341Z,14.10
2019-02-23T09:25:32.331Z,14.60
2019-02-23T09:26:32.312Z,14.00
2019-02-23T09:27:32.265Z,15.00
2019-02-23T09:28:32.487Z,12.80
2019-02-23T09:29:32.242Z,15.30
2019-02-23T09:30:32.294Z,14.00
2019-02-23T09:31:32.278Z,16.40
2019-02-23T09:32:32.269Z,15.20
2019-02-23T09:33:32.511Z,13.80
2019-02-23T09:34:32.224Z,14.80
2019-02-23T09:35:37.208Z,13.20
2019-02-23T09:36:32.211Z,14.40
2019-02-23T09:37:33.069Z,15.40
2019-02-23T09:38:32.549Z,14.60
2019-02-23T09:39:32.983Z,15.50
2019-02-23T09:40:32.363Z,13.60
2019-02-23T09:41:32.346Z,15.30
2019-02-23T09:42:32.599Z,14.80
2019-02-23T09:43:32.153Z,13.50
2019-02-23T09:44:32.137Z,21.20
2019-02-23T09:45:32.063Z,14.80
2019-02-23T09:46:32.058Z,14.90
2019-02-23T09:47:32.053Z,13.80
2019-02-23T09:48:32.728Z,15.70
2019-02-23T09:49:32.123Z,14.50
2019-02-23T09:50:32.148Z,14.80
2019-02-23T09:51:32.061Z,14.60
2019-02-23T09:52:32.029Z,13.90
2019-02-23T09:53:32.708Z,13.80
2019-02-23T09:54:32.021Z,14.00
2019-02-23T09:55:32.089Z,14.20
2019-02-23T09:56:32.095Z,14.40
2019-02-23T09:57:31.951Z,15.40
2019-02-23T09:58:32.753Z,14.60
2019-02-23T09:59:31.921Z,14.20
2019-02-23T10:00:32.692Z,13.90
2019-02-23T10:01:31.973Z,13.80
2019-02-23T10:02:31.904Z,15.30
2019-02-23T10:03:31.930Z,14.30
2019-02-23T10:04:32.204Z,14.70
2019-02-23T10:05:32.011Z,15.10
2019-02-23T10:06:32.166Z,13.50
2019-02-23T10:07:32.609Z,14.10
2019-02-23T10:08:31.943Z,15.20
2019-02-23T10:09:32.734Z,13.30
2019-02-23T10:10:31.826Z,14.50
2019-02-23T10:11:31.962Z,14.60
2019-02-23T10:14:23.728Z,13.70
2019-02-23T10:15:22.545Z,13.80
2019-02-23T10:16:22.703Z,13.80
2019-02-23T10:17:22.493Z,15.00
2019-02-23T10:18:22.519Z,14.50
2019-02-23T10:19:22.482Z,15.10
2019-02-23T10:20:23.639Z,14.90
2019-02-23T10:21:22.861Z,13.70
2019-02-23T10:22:22.602Z,13.00
2019-02-23T10:23:22.565Z,13.90
2019-02-23T10:24:24.727Z,13.10
2019-02-23T10:25:23.823Z,13.90
2019-02-23T10:26:23.733Z,13.30
2019-02-23T10:27:22.365Z,14.60
2019-02-23T10:28:22.466Z,13.60
2019-02-23T10:29:22.392Z,14.00
2019-02-23T10:30:22.452Z,14.90
2019-02-23T10:31:22.901Z,14.50
2019-02-23T10:32:22.315Z,14.30
2019-02-23T10:33:22.837Z,14.10
2019-02-23T10:34:22.377Z,14.50
2019-02-23T10:35:22.496Z,13.90
2019-02-23T10:36:23.231Z,15.70
2019-02-23T10:37:23.391Z,15.40
2019-02-23T10:38:22.319Z,15.80
2019-02-23T10:39:22.258Z,14.60
2019-02-23T10:40:22.686Z,14.30
2019-02-23T10:41:22.259Z,15.80
2019-02-23T10:42:22.274Z,14.90
2019-02-23T10:43:23.781Z,14.80
2019-02-23T10:44:22.424Z,14.00
2019-02-23T10:45:22.364Z,15.20
2019-02-23T10:46:22.182Z,15.40
2019-02-23T10:47:23.767Z,14.90
2019-02-23T10:48:22.149Z,14.40
2019-02-23T10:49:22.317Z,16.90
2019-02-23T10:50:22.280Z,13.70
2019-02-23T10:51:22.262Z,14.50
2019-02-23T10:52:22.141Z,14.70
2019-02-23T10:53:32.445Z,14.80
2019-02-23T10:54:23.323Z,14.80
2019-02-23T10:55:22.213Z,14.60
2019-02-23T10:56:22.106Z,15.20
2019-02-23T10:57:22.107Z,14.10
2019-02-23T10:58:22.939Z,15.20
2019-02-23T10:59:22.278Z,12.90
2019-02-23T11:00:23.845Z,13.70
2019-02-23T11:01:22.082Z,16.10
2019-02-23T11:02:22.029Z,14.70
2019-02-23T11:03:22.018Z,13.50
2019-02-23T11:04:22.391Z,13.60
2019-02-23T11:05:23.756Z,14.00
2019-02-23T11:06:22.519Z,13.80
2019-02-23T11:07:22.557Z,14.10
2019-02-23T11:08:22.280Z,16.50
2019-02-23T11:09:22.150Z,19.10
2019-02-23T11:10:23.804Z,13.50
2019-02-23T11:11:22.156Z,16.60
2019-02-23T11:12:22.420Z,16.30
2019-02-23T11:13:22.174Z,13.40
2019-02-23T11:14:21.886Z,12.50
2019-02-23T11:15:21.868Z,13.40
2019-02-23T11:16:21.860Z,13.80
2019-02-23T11:17:22.090Z,13.80
2019-02-23T11:18:23.485Z,13.60
2019-02-23T11:19:22.550Z,14.20
2019-02-23T11:20:23.682Z,13.60
2019-02-23T11:21:21.906Z,13.90
2019-02-23T11:22:22.489Z,14.30
2019-02-23T11:23:21.985Z,15.00
2019-02-23T11:24:23.188Z,14.10
2019-02-23T11:25:22.445Z,14.20
2019-02-23T11:26:23.189Z,14.10
2019-02-23T11:27:22.539Z,15.00
2019-02-23T11:28:22.361Z,14.50
2019-02-23T11:29:22.721Z,13.90
2019-02-23T11:30:22.831Z,12.90
2019-02-23T11:31:21.874Z,16.20
2019-02-23T11:32:21.807Z,14.80
2019-02-23T11:33:21.708Z,16.30
2019-02-23T11:34:26.813Z,14.80
2019-02-23T11:35:21.912Z,14.70
2019-02-23T11:36:22.136Z,15.30
2019-02-23T11:37:21.994Z,14.80
2019-02-23T11:38:21.655Z,15.60
2019-02-23T11:39:22.742Z,15.40
2019-02-23T11:40:23.567Z,14.70
2019-02-23T11:41:21.969Z,14.70
2019-02-23T11:42:21.989Z,15.40
2019-02-23T11:43:22.167Z,15.50
2019-02-23T11:44:21.566Z,16.40
2019-02-23T11:45:21.554Z,15.00
2019-02-23T11:46:21.894Z,15.10
2019-02-23T11:47:21.761Z,15.10
2019-02-23T11:48:22.927Z,16.60
2019-02-23T11:49:21.817Z,16.30
2019-02-23T11:50:21.996Z,15.70
2019-02-23T11:51:21.754Z,15.60
2019-02-23T11:52:22.751Z,16.70
2019-02-23T11:53:21.854Z,14.60
2019-02-23T11:54:21.801Z,15.50
2019-02-23T11:55:22.024Z,15.60
2019-02-23T11:56:22.012Z,15.00
2019-02-23T11:57:21.676Z,15.40
2019-02-23T11:58:21.447Z,14.60
2019-02-23T11:59:21.489Z,15.40
2019-02-23T12:00:21.737Z,15.80
2019-02-23T12:01:21.605Z,14.60
2019-02-23T12:02:21.833Z,15.40
2019-02-23T12:03:21.360Z,14.80
2019-02-23T12:04:21.420Z,14.50
2019-02-23T12:05:21.350Z,16.10
2019-02-23T12:06:21.519Z,14.50
2019-02-23T12:07:21.378Z,13.90
2019-02-23T12:08:21.599Z,15.60
2019-02-23T12:09:22.019Z,14.70
2019-02-23T12:10:21.335Z,15.50
2019-02-23T12:11:21.392Z,14.90
2019-02-23T12:12:22.907Z,15.90
2019-02-23T12:13:21.396Z,16.50
2019-02-23T12:14:21.720Z,14.70
2019-02-23T12:15:21.274Z,14.40
2019-02-23T12:16:24.730Z,15.90
2019-02-23T12:17:21.744Z,13.60
2019-02-23T12:18:22.751Z,15.30
2019-02-23T12:19:21.746Z,13.30
2019-02-23T12:20:21.271Z,13.80
2019-02-23T12:21:21.176Z,14.50
2019-02-23T12:22:21.173Z,14.50
2019-02-23T12:23:21.483Z,13.80
2019-02-23T12:24:21.183Z,13.30
2019-02-23T12:25:21.215Z,12.70
2019-02-23T12:26:21.803Z,12.70
2019-02-23T12:27:21.223Z,12.10
2019-02-23T12:28:21.807Z,12.50
2019-02-23T12:29:21.105Z,12.60
2019-02-23T12:30:21.141Z,13.30
2019-02-23T12:31:21.067Z,12.40
2019-02-23T12:32:21.608Z,12.70
2019-02-23T12:33:21.084Z,12.20
2019-02-23T12:34:21.254Z,11.90
2019-02-23T12:35:21.453Z,12.00
2019-02-23T12:36:21.283Z,12.70
2019-02-23T12:37:21.153Z,13.50
2019-02-23T12:38:21.787Z,12.00
2019-02-23T12:39:21.230Z,12.50
2019-02-23T12:40:21.668Z,13.80
2019-02-23T12:41:21.514Z,12.90
2019-02-23T12:42:21.191Z,13.80
2019-02-23T12:43:20.966Z,13.00
2019-02-23T12:44:20.964Z,12.10
2019-02-23T12:45:20.957Z,12.70
2019-02-23T12:46:21.189Z,12.00
2019-02-23T12:47:21.231Z,12.00
2019-02-23T12:48:21.458Z,12.70
2019-02-23T12:49:21.341Z,12.10
2019-02-23T12:50:21.403Z,14.30
2019-02-23T12:51:21.099Z,11.70
2019-02-23T12:52:21.268Z,21.50
2019-02-23T12:53:21.016Z,12.10
2019-02-23T12:54:23.661Z,13.10
2019-02-23T12:55:20.811Z,12.70
2019-02-23T12:56:20.819Z,12.40
2019-02-23T12:57:20.791Z,12.20
2019-02-23T12:58:20.917Z,13.30
2019-02-23T12:59:21.731Z,13.00
2019-02-23T13:00:21.169Z,12.40
2019-02-23T13:01:21.249Z,11.80
2019-02-23T13:02:21.275Z,12.50